Time;durP1;ratioP1;P1;durP2;ratioP2;P2;SDS_P1;SDS_P2;PMS_P1;PMS_P2;Temp;Humidity;BMP_temperature;BMP_pressure;BME280_temperature;BME280_humidity;BME280_pressure;Samples;Min_cycle;Max_cycle;Signal;HPM_P1;HPM_P2
2022/03/31 00:00:05;;;;;;;12.53;10.70;;;8.90;99.90;;;;;;5032874;28;20273;-71
2022/03/31 00:02:31;;;;;;;17.73;12.00;;;8.90;99.90;;;;;;5015164;28;20995;-71
2022/03/31 00:04:57;;;;;;;12.20;10.90;;;8.90;99.90;;;;;;5033003;28;20568;-71
2022/03/31 00:07:22;;;;;;;13.27;11.90;;;8.90;99.90;;;;;;5032978;28;20176;-71
2022/03/31 00:09:48;;;;;;;15.87;12.13;;;8.90;99.90;;;;;;5032717;28;20213;-71
2022/03/31 00:12:14;;;;;;;13.70;12.17;;;9.00;99.90;;;;;;5031316;28;20732;-71
2022/03/31 00:14:39;;;;;;;16.80;12.60;;;9.00;99.90;;;;;;5032624;28;20410;-72
2022/03/31 00:17:05;;;;;;;15.40;12.00;;;9.10;99.90;;;;;;5032817;28;20179;-71
2022/03/31 00:19:30;;;;;;;20.97;12.80;;;9.10;99.90;;;;;;5032429;28;20654;-71
2022/03/31 00:21:56;;;;;;;18.63;12.07;;;9.00;99.90;;;;;;5033027;28;20273;-71
2022/03/31 00:24:21;;;;;;;14.10;12.43;;;8.90;99.90;;;;;;5011456;28;20206;-71
2022/03/31 00:26:47;;;;;;;15.20;13.20;;;8.90;99.90;;;;;;5012898;28;20180;-71
2022/03/31 00:29:13;;;;;;;14.60;12.10;;;8.90;99.90;;;;;;5012408;28;20200;-71
2022/03/31 00:31:39;;;;;;;15.00;11.50;;;9.00;99.90;;;;;;5012923;28;20172;-71
2022/03/31 00:34:05;;;;;;;13.50;12.10;;;8.90;99.90;;;;;;5014332;28;20246;-71
2022/03/31 00:36:31;;;;;;;15.47;12.33;;;8.90;99.90;;;;;;5013877;28;20446;-71
2022/03/31 00:41:42;;;;;;;14.67;12.83;;;8.90;99.90;;;;;;5032776;28;20769;-71
2022/03/31 00:44:08;;;;;;;12.80;11.50;;;8.80;99.90;;;;;;5031649;28;20414;-71
2022/03/31 00:46:34;;;;;;;18.53;12.60;;;8.70;99.90;;;;;;5032481;28;20955;-72
2022/03/31 00:49:01;;;;;;;14.50;12.07;;;8.60;99.90;;;;;;5013058;28;20447;-69
2022/03/31 00:51:28;;;;;;;14.10;12.60;;;8.60;99.90;;;;;;5031926;28;20477;-70
2022/03/31 00:53:53;;;;;;;14.20;12.70;;;8.60;99.90;;;;;;5032499;28;20775;-70
2022/03/31 00:56:19;;;;;;;12.70;11.13;;;8.70;99.90;;;;;;5032014;28;20414;-70
2022/03/31 00:58:45;;;;;;;15.10;12.85;;;8.80;99.90;;;;;;5030949;28;20431;-70
2022/03/31 01:01:13;;;;;;;14.70;12.47;;;8.80;99.90;;;;;;5023600;28;20179;-70
2022/03/31 01:03:39;;;;;;;15.60;12.40;;;8.70;99.90;;;;;;5032075;28;20416;-71
2022/03/31 01:06:05;;;;;;;13.70;12.27;;;8.80;99.90;;;;;;5031944;28;20445;-70
2022/03/31 01:08:31;;;;;;;15.20;13.70;;;8.70;99.90;;;;;;5029076;28;20430;-70
2022/03/31 01:10:57;;;;;;;16.37;13.40;;;8.70;99.90;;;;;;5031254;28;20636;-70
2022/03/31 01:13:22;;;;;;;13.90;12.43;;;8.70;99.90;;;;;;5031997;28;20400;-71
2022/03/31 01:15:48;;;;;;;19.73;12.83;;;8.60;99.90;;;;;;5031719;28;20182;-70
2022/03/31 01:18:14;;;;;;;14.63;12.20;;;8.40;99.90;;;;;;5031533;28;20449;-70
2022/03/31 01:20:39;;;;;;;16.00;13.07;;;8.30;99.90;;;;;;5016382;28;20191;-70
2022/03/31 01:23:13;;;;;;;17.63;13.37;;;8.40;99.90;;;;;;5011885;28;20319;-69
2022/03/31 01:25:39;;;;;;;15.47;13.20;;;8.50;99.90;;;;;;5011927;28;20244;-70
2022/03/31 01:28:05;;;;;;;17.90;13.80;;;8.50;99.90;;;;;;5030789;28;20889;-70
2022/03/31 01:30:31;;;;;;;18.27;14.30;;;8.60;99.90;;;;;;5022755;28;20227;-71
2022/03/31 01:32:56;;;;;;;15.07;13.50;;;8.70;99.90;;;;;;5011894;28;20167;-69
2022/03/31 01:35:23;;;;;;;20.67;13.70;;;8.60;99.90;;;;;;5011800;28;20565;-70
2022/03/31 01:37:48;;;;;;;18.37;14.40;;;8.50;99.90;;;;;;5014017;28;20183;-70
2022/03/31 01:40:14;;;;;;;17.93;15.37;;;8.50;99.90;;;;;;5030189;28;20443;-70
2022/03/31 01:42:42;;;;;;;19.13;15.97;;;8.40;99.90;;;;;;5011885;28;20691;-70
2022/03/31 01:45:14;;;;;;;24.60;17.30;;;8.10;99.90;;;;;;5012135;28;20505;-70
2022/03/31 01:47:40;;;;;;;18.67;15.70;;;8.00;99.90;;;;;;5021196;28;20512;-70
2022/03/31 01:50:09;;;;;;;18.67;15.03;;;7.90;99.90;;;;;;5031149;28;20522;-70
2022/03/31 01:52:35;;;;;;;16.97;15.17;;;8.00;99.90;;;;;;5016762;28;20509;-70
2022/03/31 01:55:01;;;;;;;19.83;16.00;;;8.10;99.90;;;;;;5011003;28;20446;-70
2022/03/31 01:57:27;;;;;;;17.73;14.37;;;8.20;99.90;;;;;;5011749;28;20423;-70
2022/03/31 01:59:52;;;;;;;22.73;17.20;;;8.30;99.90;;;;;;5011453;28;20713;-69
2022/03/31 02:02:18;;;;;;;19.40;16.60;;;8.30;99.90;;;;;;5012852;28;20199;-70
2022/03/31 02:04:43;;;;;;;19.30;15.60;;;8.10;99.90;;;;;;5012100;28;20199;-70
2022/03/31 02:07:10;;;;;;;22.87;16.77;;;7.90;99.90;;;;;;5011730;28;20168;-69
2022/03/31 02:09:36;;;;;;;20.87;16.60;;;7.60;99.90;;;;;;5011631;28;20187;-70
2022/03/31 02:12:02;;;;;;;21.83;16.53;;;7.50;99.90;;;;;;5011749;28;20406;-72
2022/03/31 02:14:28;;;;;;;22.57;16.63;;;7.50;99.90;;;;;;5012805;28;20816;-71
2022/03/31 02:16:55;;;;;;;21.50;16.63;;;7.40;99.90;;;;;;5014155;28;20402;-70
2022/03/31 02:19:21;;;;;;;21.83;17.20;;;7.40;99.90;;;;;;5011647;28;20449;-72
2022/03/31 02:21:47;;;;;;;20.77;17.53;;;7.50;99.90;;;;;;5011867;28;20548;-71
2022/03/31 02:24:14;;;;;;;20.67;14.90;;;7.50;99.90;;;;;;5012398;28;20487;-71
2022/03/31 02:26:41;;;;;;;21.60;16.70;;;7.60;99.90;;;;;;5011676;28;20490;-69
2022/03/31 02:29:07;;;;;;;19.13;16.70;;;7.60;99.90;;;;;;5011186;28;20938;-71
2022/03/31 02:31:33;;;;;;;22.10;16.70;;;7.70;99.90;;;;;;5011597;28;20409;-72
2022/03/31 02:33:58;;;;;;;23.60;17.10;;;7.80;99.90;;;;;;5012547;28;20418;-71
2022/03/31 02:36:26;;;;;;;20.50;17.27;;;7.90;99.90;;;;;;5011793;28;20652;-70
2022/03/31 02:38:52;;;;;;;21.33;16.27;;;7.90;99.90;;;;;;5031115;28;20737;-69
2022/03/31 02:41:17;;;;;;;19.80;17.00;;;7.90;99.90;;;;;;5030883;28;20426;-69
2022/03/31 02:43:43;;;;;;;24.60;17.47;;;7.90;99.90;;;;;;5031329;28;20417;-71
2022/03/31 02:46:08;;;;;;;25.10;17.67;;;8.00;99.90;;;;;;5030972;28;20232;-71
2022/03/31 02:48:36;;;;;;;24.50;18.37;;;8.10;99.90;;;;;;5029321;28;20222;-70
2022/03/31 02:51:01;;;;;;;20.10;16.30;;;8.00;99.90;;;;;;5028832;28;20914;-72
2022/03/31 02:56:11;;;;;;;19.37;16.00;;;7.90;99.90;;;;;;5030941;28;20181;-71
2022/03/31 02:58:36;;;;;;;20.97;16.30;;;7.80;99.90;;;;;;5028958;28;20541;-71
2022/03/31 03:01:02;;;;;;;25.17;16.93;;;7.80;99.90;;;;;;5030457;28;20191;-69
2022/03/31 03:03:29;;;;;;;25.87;17.47;;;7.80;99.90;;;;;;5030380;28;20183;-70
2022/03/31 03:05:54;;;;;;;22.57;16.70;;;7.80;99.90;;;;;;5031559;28;20477;-70
2022/03/31 03:08:20;;;;;;;21.43;15.47;;;7.90;99.90;;;;;;5033365;28;20901;-71
2022/03/31 03:10:45;;;;;;;23.63;16.58;;;7.80;99.90;;;;;;5033574;28;20402;-70
2022/03/31 03:13:11;;;;;;;20.27;15.43;;;7.80;99.90;;;;;;5034290;28;20179;-70
2022/03/31 03:15:37;;;;;;;19.57;15.47;;;7.70;99.90;;;;;;5027987;28;20321;-70
2022/03/31 03:18:03;;;;;;;24.67;15.33;;;7.70;99.90;;;;;;5014893;28;20227;-71
2022/03/31 03:20:28;;;;;;;18.23;14.20;;;7.80;99.90;;;;;;5013861;28;21072;-72
2022/03/31 03:22:54;;;;;;;19.37;13.80;;;7.90;99.90;;;;;;5014699;28;20542;-71
2022/03/31 03:25:22;;;;;;;16.37;12.30;;;7.90;99.90;;;;;;5014577;28;20230;-71
2022/03/31 03:27:49;;;;;;;19.13;12.63;;;7.90;99.90;;;;;;5014728;28;20426;-70
2022/03/31 03:30:18;;;;;;;19.40;12.90;;;7.80;99.90;;;;;;5013672;28;20438;-71
2022/03/31 03:32:44;;;;;;;16.63;12.40;;;7.70;99.90;;;;;;5014049;28;20849;-70
2022/03/31 03:35:11;;;;;;;15.50;11.83;;;7.60;99.90;;;;;;5014037;28;20418;-71
2022/03/31 03:37:39;;;;;;;19.93;13.20;;;7.60;99.90;;;;;;5014823;28;20489;-71
2022/03/31 03:40:09;;;;;;;15.37;12.23;;;7.60;99.90;;;;;;5013729;28;20480;-70
2022/03/31 03:42:35;;;;;;;16.50;11.53;;;7.50;99.90;;;;;;5012783;28;20850;-70
2022/03/31 03:45:01;;;;;;;16.63;11.40;;;7.50;99.90;;;;;;5013778;28;20545;-69
2022/03/31 03:47:28;;;;;;;15.37;11.30;;;7.50;99.90;;;;;;5015045;28;20497;-70
2022/03/31 03:49:53;;;;;;;15.00;11.10;;;7.60;99.90;;;;;;5013334;28;20430;-70
2022/03/31 03:52:19;;;;;;;13.77;10.90;;;7.70;99.90;;;;;;5013695;28;20484;-70
2022/03/31 03:54:45;;;;;;;19.63;12.47;;;7.80;99.90;;;;;;4996249;28;20245;-69
2022/03/31 03:57:10;;;;;;;16.40;11.53;;;7.80;99.90;;;;;;5013849;28;20172;-70
2022/03/31 03:59:36;;;;;;;15.10;11.37;;;7.80;99.90;;;;;;5016211;28;20466;-71
2022/03/31 04:02:03;;;;;;;20.03;11.20;;;7.70;99.90;;;;;;5033686;28;20214;-70
2022/03/31 04:04:29;;;;;;;17.20;12.40;;;7.80;99.90;;;;;;5033296;28;20201;-71
2022/03/31 04:06:56;;;;;;;18.23;12.13;;;7.80;99.90;;;;;;5033627;28;20406;-70
2022/03/31 04:09:22;;;;;;;18.37;12.07;;;7.70;99.90;;;;;;5031254;28;20548;-71
2022/03/31 04:11:47;;;;;;;17.27;11.70;;;7.60;99.90;;;;;;5033389;28;20418;-70
2022/03/31 04:14:13;;;;;;;16.77;12.03;;;7.50;99.90;;;;;;5033185;28;20198;-71
2022/03/31 04:16:38;;;;;;;14.80;12.43;;;7.60;99.90;;;;;;5032915;28;20666;-70
2022/03/31 04:19:07;;;;;;;17.50;11.70;;;7.70;99.90;;;;;;5030176;28;20233;-70
2022/03/31 04:21:37;;;;;;;15.60;10.50;;;7.80;99.90;;;;;;5044266;22;20219;-67
2022/03/31 04:24:04;;;;;;;13.20;10.53;;;7.80;99.90;;;;;;5009083;28;20560;-68
2022/03/31 04:26:30;;;;;;;15.93;10.77;;;7.90;99.90;;;;;;5014563;28;20507;-67
2022/03/31 04:28:56;;;;;;;14.53;10.43;;;7.90;99.90;;;;;;5013750;28;20789;-68
2022/03/31 04:31:22;;;;;;;14.07;10.80;;;7.90;99.90;;;;;;5018297;28;20452;-67
2022/03/31 04:33:48;;;;;;;14.50;11.50;;;7.90;99.90;;;;;;5013324;28;20183;-67
2022/03/31 04:36:14;;;;;;;16.50;11.90;;;8.00;99.90;;;;;;5013980;28;20663;-69
2022/03/31 04:38:40;;;;;;;14.60;11.90;;;8.10;99.90;;;;;;5017817;28;20183;-69
2022/03/31 04:41:05;;;;;;;20.30;11.07;;;8.10;99.90;;;;;;5013506;28;20493;-69
2022/03/31 04:43:31;;;;;;;17.97;12.17;;;8.10;99.90;;;;;;5016387;28;20202;-68
2022/03/31 04:45:56;;;;;;;17.57;12.77;;;8.00;99.90;;;;;;5015802;28;20195;-67
2022/03/31 04:48:22;;;;;;;17.50;12.20;;;8.00;99.90;;;;;;5033871;28;20224;-68
2022/03/31 04:50:47;;;;;;;16.13;10.80;;;8.00;99.90;;;;;;5033223;28;20260;-69
2022/03/31 04:53:14;;;;;;;16.20;11.30;;;8.00;99.90;;;;;;5033816;28;20187;-69
2022/03/31 04:55:40;;;;;;;17.20;12.20;;;8.00;99.90;;;;;;5033048;28;20174;-68
2022/03/31 04:58:06;;;;;;;18.07;12.10;;;8.00;99.90;;;;;;5033410;28;20402;-70
2022/03/31 05:00:31;;;;;;;15.37;11.00;;;8.00;99.90;;;;;;5033056;28;20931;-69
2022/03/31 05:02:59;;;;;;;17.73;12.40;;;8.00;99.90;;;;;;5033326;28;20199;-69
2022/03/31 05:05:25;;;;;;;17.77;11.90;;;8.00;99.90;;;;;;5014526;28;20197;-68
2022/03/31 05:07:50;;;;;;;19.50;12.33;;;7.90;99.90;;;;;;5033520;28;20413;-69
2022/03/31 05:10:16;;;;;;;17.23;12.57;;;8.00;99.90;;;;;;5033023;28;20410;-69
2022/03/31 05:12:42;;;;;;;19.63;13.33;;;7.90;99.90;;;;;;5033682;28;20187;-68
2022/03/31 05:15:08;;;;;;;16.40;12.17;;;8.00;99.90;;;;;;5031679;28;20179;-69
2022/03/31 05:17:35;;;;;;;17.33;13.13;;;7.90;99.90;;;;;;5033434;28;20198;-69
2022/03/31 05:20:10;;;;;;;13.30;10.53;;;7.90;99.90;;;;;;5033339;28;20463;-69
2022/03/31 05:22:38;;;;;;;19.60;13.87;;;7.90;99.90;;;;;;5033111;28;20774;-68
2022/03/31 05:25:07;;;;;;;19.67;12.47;;;7.80;99.90;;;;;;5032938;28;20449;-68
2022/03/31 05:27:52;;;;;;;16.27;11.70;;;7.80;99.90;;;;;;5031191;28;20419;-69
2022/03/31 05:30:19;;;;;;;19.40;11.73;;;7.80;99.90;;;;;;5014596;28;20417;-68
2022/03/31 05:32:46;;;;;;;18.03;11.87;;;7.80;99.90;;;;;;5033379;28;20429;-69
2022/03/31 05:35:13;;;;;;;20.33;14.60;;;7.70;99.90;;;;;;5015925;28;20424;-68
2022/03/31 05:37:40;;;;;;;18.77;12.93;;;7.80;99.90;;;;;;5032413;28;20952;-68
2022/03/31 05:40:08;;;;;;;16.77;11.50;;;7.90;99.90;;;;;;5033558;28;20410;-68
2022/03/31 05:42:35;;;;;;;19.73;13.20;;;7.90;99.90;;;;;;5016158;28;21124;-68
2022/03/31 05:45:01;;;;;;;17.87;11.80;;;7.90;99.90;;;;;;5034420;28;20445;-68
2022/03/31 05:47:27;;;;;;;15.97;12.27;;;7.90;99.90;;;;;;5015298;28;20422;-69
2022/03/31 05:49:53;;;;;;;19.20;12.20;;;7.80;99.90;;;;;;5013094;28;20434;-68
2022/03/31 05:52:19;;;;;;;19.87;13.07;;;7.80;99.90;;;;;;5012763;28;20319;-68
2022/03/31 05:54:44;;;;;;;19.43;11.60;;;7.80;99.90;;;;;;5011899;28;20197;-69
2022/03/31 05:57:10;;;;;;;16.90;12.70;;;7.90;99.90;;;;;;5022282;28;20414;-67
2022/03/31 05:59:36;;;;;;;16.97;12.13;;;8.00;99.90;;;;;;5015170;28;20726;-68
2022/03/31 06:02:02;;;;;;;15.27;11.70;;;8.00;99.90;;;;;;5013121;28;20203;-68
2022/03/31 06:04:28;;;;;;;18.90;12.20;;;8.10;99.90;;;;;;5014412;28;20657;-68
2022/03/31 06:06:54;;;;;;;19.67;14.13;;;8.20;99.90;;;;;;5012795;28;20513;-68
2022/03/31 06:09:19;;;;;;;20.03;12.63;;;8.30;99.90;;;;;;5017292;28;20414;-69
2022/03/31 06:11:45;;;;;;;14.23;12.20;;;8.30;99.90;;;;;;4996444;28;20431;-67
2022/03/31 06:14:11;;;;;;;17.30;12.13;;;8.40;99.90;;;;;;5006769;28;20300;-67
2022/03/31 06:16:37;;;;;;;18.23;11.60;;;8.30;99.90;;;;;;5015908;28;20270;-69
2022/03/31 06:19:04;;;;;;;15.60;11.30;;;8.20;99.90;;;;;;5012923;28;20903;-70
2022/03/31 06:21:30;;;;;;;17.43;12.20;;;8.10;99.90;;;;;;5007628;28;20784;-68
2022/03/31 06:23:55;;;;;;;18.27;12.87;;;8.10;99.90;;;;;;5013204;28;20467;-68
2022/03/31 06:26:22;;;;;;;16.67;12.03;;;8.00;99.90;;;;;;5009202;28;20478;-68
2022/03/31 06:28:47;;;;;;;18.67;11.87;;;8.00;99.90;;;;;;5009809;28;20588;-68
2022/03/31 06:31:13;;;;;;;17.00;12.43;;;7.80;99.90;;;;;;5011091;28;20442;-66
2022/03/31 06:33:39;;;;;;;16.70;11.90;;;7.90;99.90;;;;;;4993397;28;20553;-67
2022/03/31 06:36:04;;;;;;;17.30;11.27;;;8.00;99.90;;;;;;4991623;28;20210;-68
2022/03/31 06:38:30;;;;;;;17.57;11.77;;;8.10;99.90;;;;;;5029239;28;20176;-67
2022/03/31 06:41:13;;;;;;;16.40;11.77;;;8.10;99.90;;;;;;5032221;28;20178;-68
2022/03/31 06:43:40;;;;;;;17.43;12.60;;;8.10;99.90;;;;;;5035487;28;20186;-68
2022/03/31 06:46:07;;;;;;;16.43;11.27;;;8.20;99.90;;;;;;5017088;28;20544;-68
2022/03/31 06:48:33;;;;;;;15.40;11.50;;;8.20;99.90;;;;;;5033533;28;20410;-68
2022/03/31 06:50:59;;;;;;;17.13;12.37;;;8.20;99.90;;;;;;5035607;28;20445;-69
2022/03/31 06:53:25;;;;;;;16.60;12.67;;;8.20;99.90;;;;;;5036608;28;20405;-68
2022/03/31 06:55:50;;;;;;;16.57;12.40;;;8.30;99.90;;;;;;5040056;28;20409;-68
2022/03/31 06:58:17;;;;;;;15.53;11.67;;;8.20;99.90;;;;;;5030644;28;20515;-69
2022/03/31 07:00:43;;;;;;;16.00;11.37;;;8.10;99.90;;;;;;5014973;28;20208;-68
2022/03/31 07:03:09;;;;;;;16.73;11.70;;;8.00;99.90;;;;;;5016036;28;20442;-67
2022/03/31 07:05:36;;;;;;;15.87;10.73;;;8.00;99.90;;;;;;5013738;28;20905;-68
2022/03/31 07:08:03;;;;;;;16.00;11.57;;;7.90;99.90;;;;;;5012846;28;20231;-69
2022/03/31 07:10:29;;;;;;;17.47;11.73;;;8.00;99.90;;;;;;5024052;28;20844;-68
2022/03/31 07:12:55;;;;;;;17.77;11.67;;;8.10;99.90;;;;;;4995648;28;20529;-69
2022/03/31 07:15:20;;;;;;;17.70;10.73;;;8.20;99.90;;;;;;5012884;28;20175;-67
2022/03/31 07:17:46;;;;;;;14.37;11.30;;;8.20;99.90;;;;;;5017958;28;20268;-69
2022/03/31 07:20:11;;;;;;;18.87;12.17;;;8.30;99.90;;;;;;5013394;28;20254;-68
2022/03/31 07:22:45;;;;;;;14.20;11.40;;;8.30;99.90;;;;;;5018214;28;20268;-68
2022/03/31 07:25:11;;;;;;;15.43;11.77;;;8.30;99.90;;;;;;5019625;28;20203;-69
2022/03/31 07:27:36;;;;;;;16.67;10.80;;;8.20;99.90;;;;;;5011835;28;20418;-68
2022/03/31 07:30:02;;;;;;;15.83;10.47;;;8.10;99.90;;;;;;4997905;28;20832;-68
2022/03/31 07:32:28;;;;;;;17.60;11.40;;;8.10;99.90;;;;;;4993151;28;20202;-69
2022/03/31 07:34:54;;;;;;;16.37;12.13;;;8.20;99.90;;;;;;5011794;28;21219;-69
2022/03/31 07:37:20;;;;;;;17.00;11.43;;;8.40;99.90;;;;;;5011591;28;20434;-69
2022/03/31 07:39:45;;;;;;;17.73;11.90;;;8.40;99.90;;;;;;5011965;28;20578;-69
2022/03/31 07:42:12;;;;;;;16.70;12.00;;;8.50;99.90;;;;;;5013247;28;20213;-68
2022/03/31 07:44:39;;;;;;;13.70;10.40;;;8.60;99.90;;;;;;5013201;28;20262;-69
2022/03/31 07:47:05;;;;;;;16.87;12.43;;;8.80;99.90;;;;;;5012111;28;20436;-68
2022/03/31 07:49:31;;;;;;;13.33;11.37;;;8.90;99.90;;;;;;5012178;28;20418;-69
2022/03/31 07:51:56;;;;;;;15.50;11.00;;;8.80;99.90;;;;;;5014779;28;20527;-68
2022/03/31 07:54:22;;;;;;;14.17;11.00;;;8.90;99.90;;;;;;5025413;28;20211;-67
2022/03/31 07:56:49;;;;;;;14.57;10.90;;;8.90;99.90;;;;;;5012992;28;20175;-68
2022/03/31 07:59:14;;;;;;;15.93;11.03;;;9.00;99.90;;;;;;4994483;28;20435;-68
2022/03/31 08:01:40;;;;;;;18.83;12.40;;;9.10;99.90;;;;;;4995685;28;20446;-68
2022/03/31 08:04:06;;;;;;;13.63;10.70;;;9.00;99.90;;;;;;4993908;28;20178;-69
2022/03/31 08:06:32;;;;;;;15.90;11.70;;;9.10;99.90;;;;;;4994448;28;20203;-69
2022/03/31 08:08:58;;;;;;;15.43;11.47;;;9.10;99.90;;;;;;4995576;28;20425;-68
2022/03/31 08:11:23;;;;;;;17.50;12.57;;;9.20;99.90;;;;;;5012548;28;20640;-68
2022/03/31 08:13:49;;;;;;;12.10;10.40;;;9.10;99.90;;;;;;5005283;28;20183;-68
2022/03/31 08:16:14;;;;;;;13.20;10.30;;;9.10;99.90;;;;;;5012621;28;20591;-69
2022/03/31 08:18:40;;;;;;;15.57;10.77;;;9.10;99.90;;;;;;5011029;28;20223;-70
2022/03/31 08:21:05;;;;;;;17.27;12.10;;;9.10;99.90;;;;;;5010738;28;20188;-69
2022/03/31 08:23:32;;;;;;;16.73;12.70;;;9.20;99.90;;;;;;5018522;28;20218;-69
2022/03/31 08:25:58;;;;;;;15.30;11.30;;;8.90;99.90;;;;;;4993571;28;20207;-68
2022/03/31 08:28:25;;;;;;;14.17;11.50;;;9.00;99.90;;;;;;5010439;28;21210;-69
2022/03/31 08:30:51;;;;;;;14.43;11.27;;;9.00;99.90;;;;;;5010829;28;20666;-69
2022/03/31 08:33:17;;;;;;;20.07;13.83;;;8.90;99.90;;;;;;5011575;28;20460;-69
2022/03/31 08:35:42;;;;;;;17.23;11.93;;;8.90;99.90;;;;;;5011480;28;20460;-69
2022/03/31 08:38:08;;;;;;;15.00;11.90;;;9.00;99.90;;;;;;5003778;28;20179;-69
2022/03/31 08:40:36;;;;;;;17.73;12.00;;;8.90;99.90;;;;;;4993242;28;20189;-69
2022/03/31 08:43:02;;;;;;;15.47;12.37;;;9.00;99.90;;;;;;4993426;28;20362;-69
2022/03/31 08:45:33;;;;;;;15.47;12.40;;;9.00;99.90;;;;;;5011579;28;20553;-69
2022/03/31 08:48:01;;;;;;;15.30;12.33;;;9.00;99.90;;;;;;5015366;28;20457;-68
2022/03/31 08:50:27;;;;;;;14.07;11.50;;;9.00;99.90;;;;;;5005490;28;20437;-69
2022/03/31 08:52:53;;;;;;;16.07;12.40;;;8.90;99.90;;;;;;4992881;28;20439;-68
2022/03/31 08:55:19;;;;;;;15.47;12.47;;;8.90;99.90;;;;;;4998517;28;20650;-69
2022/03/31 08:57:48;;;;;;;17.60;13.50;;;8.90;99.90;;;;;;5011600;28;20431;-68
2022/03/31 09:00:15;;;;;;;15.53;11.70;;;8.80;99.90;;;;;;5009247;28;20231;-69
2022/03/31 09:02:53;;;;;;;15.97;12.67;;;8.80;99.90;;;;;;5010062;28;20438;-69
2022/03/31 09:05:18;;;;;;;16.70;11.30;;;8.90;99.90;;;;;;5009245;28;20516;-68
2022/03/31 09:07:56;;;;;;;19.50;11.83;;;9.10;99.90;;;;;;5009396;28;20418;-69
2022/03/31 09:10:47;;;;;;;14.93;11.00;;;9.20;99.90;;;;;;5010871;28;20189;-68
2022/03/31 09:13:23;;;;;;;14.57;10.70;;;9.30;99.90;;;;;;4991985;28;20457;-68
2022/03/31 09:15:56;;;;;;;14.43;10.50;;;9.30;99.90;;;;;;5009547;28;20425;-70
2022/03/31 09:18:23;;;;;;;14.53;11.07;;;9.40;99.90;;;;;;4992704;28;20433;-67
2022/03/31 09:20:52;;;;;;;15.67;11.60;;;9.40;99.90;;;;;;4993116;28;20515;-69
2022/03/31 09:23:19;;;;;;;16.17;11.53;;;9.50;99.90;;;;;;5022026;28;20489;-68
2022/03/31 09:25:45;;;;;;;14.07;11.07;;;9.50;99.90;;;;;;5012374;28;20464;-68
2022/03/31 09:28:18;;;;;;;15.00;12.30;;;9.50;99.90;;;;;;5009534;28;20414;-68
2022/03/31 09:30:55;;;;;;;17.07;12.87;;;9.60;99.90;;;;;;5010772;28;20426;-69
2022/03/31 09:33:35;;;;;;;15.53;10.93;;;9.60;99.90;;;;;;5009648;28;20518;-68
2022/03/31 09:36:08;;;;;;;17.70;12.50;;;9.60;99.90;;;;;;5008443;28;20414;-68
2022/03/31 09:38:38;;;;;;;17.27;11.73;;;9.60;99.90;;;;;;5009297;28;20428;-68
2022/03/31 09:41:25;;;;;;;16.57;12.10;;;9.60;99.90;;;;;;5010110;28;20464;-68
2022/03/31 09:43:52;;;;;;;16.97;12.90;;;9.60;99.90;;;;;;5008443;28;20433;-68
2022/03/31 09:46:20;;;;;;;15.73;11.90;;;9.50;99.90;;;;;;5008839;28;20511;-68
2022/03/31 09:48:45;;;;;;;16.83;12.60;;;9.60;99.90;;;;;;5008932;28;20421;-67
2022/03/31 09:51:12;;;;;;;15.93;12.77;;;9.70;99.90;;;;;;4991663;28;20426;-68
2022/03/31 09:53:38;;;;;;;13.73;11.13;;;9.80;99.90;;;;;;5006745;28;20187;-68
2022/03/31 09:56:06;;;;;;;14.30;11.67;;;9.80;99.90;;;;;;5009305;28;20414;-67
2022/03/31 09:58:35;;;;;;;18.03;12.47;;;9.80;99.90;;;;;;5008104;28;20421;-68
2022/03/31 10:01:03;;;;;;;15.50;11.63;;;9.70;99.90;;;;;;5008521;28;20413;-68
2022/03/31 10:03:29;;;;;;;15.67;11.27;;;9.70;99.90;;;;;;5010818;28;20436;-68
2022/03/31 10:05:55;;;;;;;17.77;12.90;;;9.70;99.90;;;;;;5009515;28;20462;-69
2022/03/31 10:08:22;;;;;;;14.43;11.80;;;9.70;99.90;;;;;;4991193;28;20179;-68
2022/03/31 10:10:48;;;;;;;15.10;12.07;;;9.70;99.90;;;;;;5007800;28;21261;-69
2022/03/31 10:13:24;;;;;;;15.30;12.20;;;9.60;99.90;;;;;;5010505;28;20564;-69
2022/03/31 10:15:58;;;;;;;16.07;12.60;;;9.60;99.90;;;;;;5009838;28;20438;-68
2022/03/31 10:18:24;;;;;;;14.70;11.77;;;9.70;99.90;;;;;;5013209;28;20413;-71
2022/03/31 10:21:00;;;;;;;17.90;13.40;;;9.70;99.90;;;;;;5012801;28;20428;-68
2022/03/31 10:26:25;;;;;;;14.87;12.30;;;9.60;99.90;;;;;;5014084;28;21032;-68
2022/03/31 10:28:59;;;;;;;15.77;12.60;;;9.60;99.90;;;;;;5013990;28;20443;-67
2022/03/31 10:31:36;;;;;;;16.80;12.20;;;9.60;99.90;;;;;;5013401;28;20487;-68
2022/03/31 10:34:03;;;;;;;15.57;12.30;;;9.50;99.90;;;;;;4996653;28;20426;-69
2022/03/31 10:36:38;;;;;;;14.70;11.87;;;9.60;99.90;;;;;;5013700;28;21022;-68
2022/03/31 10:39:07;;;;;;;14.13;12.63;;;9.60;99.90;;;;;;4999807;28;20433;-68
2022/03/31 10:41:38;;;;;;;17.20;13.13;;;9.30;99.90;;;;;;4990820;28;20444;-67
2022/03/31 10:44:16;;;;;;;19.57;14.40;;;9.20;99.90;;;;;;4994670;28;20791;-68
2022/03/31 10:46:44;;;;;;;17.73;13.83;;;9.10;99.90;;;;;;5017685;28;20490;-67
2022/03/31 10:49:13;;;;;;;15.47;12.67;;;9.10;99.90;;;;;;5012431;28;20434;-69
2022/03/31 10:51:41;;;;;;;18.87;14.27;;;9.10;99.90;;;;;;5024233;28;20476;-67
2022/03/31 10:54:11;;;;;;;16.93;14.00;;;9.30;99.90;;;;;;5014255;28;20428;-70
2022/03/31 10:56:38;;;;;;;20.43;14.80;;;9.30;99.90;;;;;;5012235;28;20426;-69
2022/03/31 10:59:06;;;;;;;19.67;14.40;;;9.30;99.90;;;;;;5006000;28;20464;-68
2022/03/31 11:01:37;;;;;;;19.60;14.13;;;9.40;99.90;;;;;;5006281;28;20483;-69
2022/03/31 11:04:07;;;;;;;19.43;14.43;;;9.50;99.90;;;;;;5011353;28;20853;-67
2022/03/31 11:06:33;;;;;;;20.40;15.20;;;9.60;99.90;;;;;;5011541;28;20473;-69
2022/03/31 11:08:59;;;;;;;19.93;14.83;;;9.60;99.90;;;;;;4994159;28;20449;-68
2022/03/31 11:11:28;;;;;;;19.27;14.00;;;9.60;99.90;;;;;;4993510;28;20472;-68
2022/03/31 11:13:55;;;;;;;19.93;14.47;;;9.60;99.90;;;;;;5012076;28;20238;-70
2022/03/31 11:16:22;;;;;;;16.70;13.30;;;9.40;99.90;;;;;;4995019;28;20445;-69
2022/03/31 11:18:59;;;;;;;17.80;14.03;;;9.20;99.90;;;;;;5012442;28;20454;-67
2022/03/31 11:21:33;;;;;;;17.53;13.43;;;9.20;99.90;;;;;;5009803;28;20558;-68
2022/03/31 11:23:59;;;;;;;19.37;14.07;;;9.30;99.90;;;;;;5020643;28;20973;-68
2022/03/31 11:26:27;;;;;;;19.10;13.37;;;9.30;99.90;;;;;;5010828;28;20469;-67
2022/03/31 11:28:53;;;;;;;17.90;12.60;;;9.40;99.90;;;;;;5014733;28;20201;-69
2022/03/31 11:31:20;;;;;;;17.10;13.50;;;9.60;99.90;;;;;;4993187;28;20479;-68
2022/03/31 11:33:46;;;;;;;17.80;13.73;;;9.80;99.90;;;;;;4993711;28;20507;-69
2022/03/31 11:36:12;;;;;;;17.57;12.43;;;9.70;99.90;;;;;;5010495;28;20540;-69
2022/03/31 11:38:38;;;;;;;13.87;12.20;;;9.50;99.90;;;;;;5012399;28;20520;-69
2022/03/31 11:41:05;;;;;;;17.53;13.30;;;9.30;99.90;;;;;;5010637;28;21025;-66
2022/03/31 11:43:32;;;;;;;16.10;13.20;;;9.20;99.90;;;;;;5010794;28;21011;-68
2022/03/31 11:45:58;;;;;;;17.93;13.20;;;9.00;99.90;;;;;;4992698;28;20488;-68
2022/03/31 11:48:39;;;;;;;17.20;13.87;;;8.80;99.90;;;;;;4992618;28;20447;-67
2022/03/31 11:51:07;;;;;;;14.30;12.00;;;8.60;99.90;;;;;;4989041;28;20843;-67
2022/03/31 11:53:44;;;;;;;15.60;13.20;;;8.80;99.90;;;;;;5009392;28;20482;-68
2022/03/31 11:56:26;;;;;;;17.80;12.70;;;9.00;99.90;;;;;;5009957;28;20420;-67
2022/03/31 11:58:53;;;;;;;15.23;12.20;;;9.20;99.90;;;;;;4992885;28;20427;-66
2022/03/31 12:01:22;;;;;;;16.47;12.90;;;9.30;99.90;;;;;;5013856;28;20446;-68
2022/03/31 12:03:48;;;;;;;15.80;13.87;;;9.30;99.90;;;;;;5010273;28;20429;-68
2022/03/31 12:06:14;;;;;;;16.33;12.00;;;9.40;99.90;;;;;;4996848;28;20580;-68
2022/03/31 12:08:40;;;;;;;17.20;13.17;;;9.50;99.90;;;;;;4992358;28;20179;-66
2022/03/31 12:11:07;;;;;;;17.37;13.03;;;9.60;99.90;;;;;;5011428;28;20456;-67
2022/03/31 12:13:45;;;;;;;17.60;13.90;;;9.70;99.90;;;;;;5009617;28;20429;-68
2022/03/31 12:16:10;;;;;;;16.50;12.47;;;9.90;99.90;;;;;;4984096;28;20886;-69
2022/03/31 12:18:37;;;;;;;18.80;12.53;;;9.80;99.90;;;;;;5010105;28;20436;-70
2022/03/31 12:21:05;;;;;;;15.83;11.20;;;9.50;99.90;;;;;;4997084;28;20198;-69
2022/03/31 12:23:32;;;;;;;15.80;12.60;;;9.00;99.90;;;;;;5016108;28;20490;-67
2022/03/31 12:25:57;;;;;;;16.23;13.10;;;8.70;99.90;;;;;;4991929;28;20462;-68
2022/03/31 12:28:23;;;;;;;21.70;13.90;;;8.60;99.90;;;;;;5010229;28;20418;-68
2022/03/31 12:30:51;;;;;;;18.77;13.00;;;8.70;99.90;;;;;;5009667;28;20546;-69
2022/03/31 12:33:19;;;;;;;15.40;12.63;;;8.90;99.90;;;;;;4997057;28;20451;-68
2022/03/31 12:36:00;;;;;;;16.13;13.10;;;9.00;99.90;;;;;;4991873;28;20429;-67
2022/03/31 12:38:46;;;;;;;20.03;14.07;;;9.10;99.90;;;;;;5010007;28;20436;-67
2022/03/31 12:41:15;;;;;;;20.33;15.40;;;9.00;99.90;;;;;;5009006;28;20454;-67
2022/03/31 12:43:41;;;;;;;19.10;14.23;;;8.90;99.90;;;;;;5009104;28;20422;-67